Terminal Aerodrome Forecast
Issued by NWS Paducah, KY

Home | Current Version | Previous Version | Text Only | Print | Product List | Glossary On
Versions: 1 2 3 4 5 6 7 8 9 10 11 12 13 14 15 16 17 18 19
000
FTUS43 KPAH 041617 AAB
TAFPAH
TAF AMD
KPAH 041617Z 0416/0512 02012KT 3SM -RA BR SCT010 OVC015
      TEMPO 0416/0419 2SM -PL BR SCT006 OVC010
     FM041900 01012G20KT 3SM -PL BR OVC005
      TEMPO 0421/0424 1SM -SNPL BR
     FM050000 01014G21KT 1SM -SN BR OVC005=

USA.gov is the U.S. government's official web portal to all federal, state and local government web resources and services.